Time;durP1;ratioP1;P1;durP2;ratioP2;P2;SDS_P1;SDS_P2;PMS_P1;PMS_P2;Temp;Humidity;BMP_temperature;BMP_pressure;BME280_temperature;BME280_humidity;BME280_pressure;Samples;Min_cycle;Max_cycle;Signal;HPM_P1;HPM_P2
2022/03/16 00:00:03;;;;;;;;;;;;;;;4.48;56.24;100975.50;4988116;28;19953;-90
2022/03/16 00:02:29;;;;;;;;;;;;;;;4.53;56.16;100975.66;4991352;28;20316;-89
2022/03/16 00:04:55;;;;;;;;;;;;;;;4.48;55.95;100949.38;5009075;28;19920;-86
2022/03/16 00:07:21;;;;;;;;;;;;;;;4.39;56.44;100952.59;5020643;28;19922;-89
2022/03/16 00:09:46;;;;;;;;;;;;;;;4.23;57.34;100951.25;4989082;28;19917;-87
2022/03/16 00:12:12;;;;;;;;;;;;;;;4.29;56.76;100946.22;4998545;28;19918;-88
2022/03/16 00:14:38;;;;;;;;;;;;;;;4.37;56.86;100956.91;4989616;28;19944;-88
2022/03/16 00:17:04;;;;;;;;;;;;;;;4.32;56.73;100957.59;5007158;28;20446;-86
2022/03/16 00:19:29;;;;;;;;;;;;;;;4.28;57.51;100961.84;5007589;28;19921;-87
2022/03/16 00:21:56;;;;;;;;;;;;;;;4.17;57.64;100947.53;4989422;28;19956;-89
2022/03/16 00:24:22;;;;;;;;;;;;;;;4.11;58.86;100937.81;4989735;28;19922;-90
2022/03/16 00:26:47;;;;;;;;;;;;;;;4.01;58.67;100943.56;5007885;28;19975;-89
2022/03/16 00:29:12;;;;;;;;;;;;;;;3.92;58.62;100936.31;4991556;28;19917;-89
2022/03/16 00:31:37;;;;;;;;;;;;;;;3.82;58.79;100937.75;5009026;28;20396;-87
2022/03/16 00:34:03;;;;;;;;;;;;;;;3.66;59.36;100931.16;5009345;28;20299;-87
2022/03/16 00:36:28;;;;;;;;;;;;;;;3.92;58.86;100933.72;5008558;28;20388;-87
2022/03/16 00:38:54;;;;;;;;;;;;;;;4.10;57.98;100928.19;5008663;28;19918;-87
2022/03/16 00:41:20;;;;;;;;;;;;;;;4.01;58.05;100928.78;5007647;28;19926;-88
2022/03/16 00:43:45;;;;;;;;;;;;;;;4.09;57.74;100924.72;5008654;28;19917;-87
2022/03/16 00:46:11;;;;;;;;;;;;;;;4.03;57.96;100921.91;5007981;28;19917;-87
2022/03/16 00:48:36;;;;;;;;;;;;;;;3.62;58.98;100913.63;5008951;28;19913;-87
2022/03/16 00:51:02;;;;;;;;;;;;;;;3.64;59.11;100917.16;4991109;28;20715;-88
2022/03/16 00:53:27;;;;;;;;;;;;;;;3.71;58.87;100920.88;4990508;28;19972;-88
2022/03/16 00:55:52;;;;;;;;;;;;;;;3.75;59.09;100915.81;5007549;28;20375;-87
2022/03/16 00:58:18;;;;;;;;;;;;;;;3.91;58.72;100906.72;5007979;28;20440;-87
2022/03/16 01:00:43;;;;;;;;;;;;;;;3.99;58.23;100914.81;4989170;28;19917;-88
2022/03/16 01:03:08;;;;;;;;;;;;;;;3.88;58.45;100911.84;5007626;28;19921;-87
2022/03/16 01:05:34;;;;;;;;;;;;;;;3.89;59.03;100907.50;5007937;28;19917;-87
2022/03/16 01:07:59;;;;;;;;;;;;;;;3.83;59.39;100916.06;5007636;28;19975;-87
2022/03/16 01:10:24;;;;;;;;;;;;;;;4.05;58.67;100912.38;5007186;28;19949;-88
2022/03/16 01:12:50;;;;;;;;;;;;;;;4.07;58.48;100918.53;4974563;28;19999;-89
2022/03/16 01:15:15;;;;;;;;;;;;;;;4.07;57.97;100915.91;4989461;28;19944;-87
2022/03/16 01:17:40;;;;;;;;;;;;;;;4.13;58.21;100912.63;4989869;28;19924;-87
2022/03/16 01:20:06;;;;;;;;;;;;;;;4.31;57.86;100904.47;4989930;28;20387;-88
2022/03/16 01:22:32;;;;;;;;;;;;;;;4.44;57.34;100905.69;5006986;28;19921;-88
2022/03/16 01:24:57;;;;;;;;;;;;;;;4.39;56.96;100907.31;5007848;28;19925;-87
2022/03/16 01:27:22;;;;;;;;;;;;;;;4.30;57.57;100907.91;5006820;28;19921;-87
2022/03/16 01:29:48;;;;;;;;;;;;;;;4.14;58.33;100898.72;5008010;28;20322;-87
2022/03/16 01:32:13;;;;;;;;;;;;;;;4.23;58.20;100890.25;5007475;28;20406;-88
2022/03/16 01:34:38;;;;;;;;;;;;;;;4.13;58.52;100882.16;4989375;28;19925;-88
2022/03/16 01:37:04;;;;;;;;;;;;;;;4.08;58.95;100870.69;4989020;28;19925;-87
2022/03/16 01:39:30;;;;;;;;;;;;;;;4.10;58.53;100876.84;5007035;28;19932;-88
2022/03/16 01:41:55;;;;;;;;;;;;;;;4.16;58.88;100876.16;4989844;28;19915;-87
2022/03/16 01:44:39;;;;;;;;;;;;;;;3.88;59.45;100871.81;5006730;28;20618;-87
2022/03/16 01:47:04;;;;;;;;;;;;;;;3.89;59.26;100865.75;5006884;28;19924;-88
2022/03/16 01:49:30;;;;;;;;;;;;;;;3.66;60.31;100863.31;5008499;28;19917;-89
2022/03/16 01:51:55;;;;;;;;;;;;;;;3.56;60.35;100846.47;5007236;28;20426;-89
2022/03/16 01:54:21;;;;;;;;;;;;;;;3.49;60.46;100852.34;5009992;28;19921;-88
2022/03/16 01:56:47;;;;;;;;;;;;;;;3.52;61.03;100844.63;4992826;28;20019;-88
2022/03/16 01:59:12;;;;;;;;;;;;;;;3.49;60.36;100828.84;5011116;28;20043;-85
2022/03/16 02:01:38;;;;;;;;;;;;;;;3.52;60.90;100820.22;5010168;28;19921;-87
2022/03/16 02:04:04;;;;;;;;;;;;;;;3.55;60.36;100812.50;4993627;28;20016;-86
2022/03/16 02:06:29;;;;;;;;;;;;;;;3.60;60.39;100810.94;5025799;28;20433;-87
2022/03/16 02:08:54;;;;;;;;;;;;;;;3.58;60.29;100800.44;5011109;28;19917;-86
2022/03/16 02:11:21;;;;;;;;;;;;;;;3.62;60.55;100805.75;4992390;28;20637;-87
2022/03/16 02:13:47;;;;;;;;;;;;;;;3.75;59.98;100813.09;5011033;28;19932;-86
2022/03/16 02:16:12;;;;;;;;;;;;;;;3.79;59.37;100788.88;5010130;28;19917;-87
2022/03/16 02:18:38;;;;;;;;;;;;;;;3.49;60.80;100789.72;5011224;28;20391;-86
2022/03/16 02:21:05;;;;;;;;;;;;;;;3.52;61.10;100783.69;5011217;28;19917;-86
2022/03/16 02:23:31;;;;;;;;;;;;;;;3.60;60.98;100777.00;5010635;28;19918;-86
2022/03/16 02:25:56;;;;;;;;;;;;;;;3.54;61.36;100788.13;4993367;28;20396;-87
2022/03/16 02:28:22;;;;;;;;;;;;;;;3.58;61.34;100800.44;5011058;28;19913;-88
2022/03/16 02:30:49;;;;;;;;;;;;;;;3.62;60.90;100804.03;5011620;28;19917;-87
2022/03/16 02:33:15;;;;;;;;;;;;;;;3.67;60.54;100789.38;4992613;28;19918;-86
2022/03/16 02:35:40;;;;;;;;;;;;;;;3.63;60.88;100799.69;5010816;28;19925;-86
2022/03/16 02:38:06;;;;;;;;;;;;;;;3.62;60.38;100798.81;4992867;28;19924;-85
2022/03/16 02:40:32;;;;;;;;;;;;;;;3.58;60.96;100778.66;5010602;28;19914;-86
2022/03/16 02:42:57;;;;;;;;;;;;;;;3.60;60.68;100774.41;5010993;28;20024;-86
2022/03/16 02:45:22;;;;;;;;;;;;;;;3.59;61.03;100775.22;5010099;28;20314;-85
2022/03/16 02:47:48;;;;;;;;;;;;;;;3.64;60.46;100794.50;5010716;28;20004;-85
2022/03/16 02:50:14;;;;;;;;;;;;;;;3.65;60.71;100785.84;5011221;28;19918;-86
2022/03/16 02:52:39;;;;;;;;;;;;;;;3.64;60.46;100778.84;5009813;28;20031;-86
2022/03/16 02:55:06;;;;;;;;;;;;;;;3.71;60.31;100775.59;5010464;28;20043;-83
2022/03/16 02:57:31;;;;;;;;;;;;;;;3.61;60.36;100777.88;5010393;28;20012;-86
2022/03/16 02:59:56;;;;;;;;;;;;;;;3.57;61.09;100772.56;5009951;28;20088;-87
2022/03/16 03:02:22;;;;;;;;;;;;;;;3.62;61.26;100775.31;5010354;28;19936;-86
2022/03/16 03:04:47;;;;;;;;;;;;;;;2.81;62.69;100805.78;5009441;28;19917;-86
2022/03/16 03:07:13;;;;;;;;;;;;;;;2.71;64.02;100797.59;5010294;28;19924;-85
2022/03/16 03:09:38;;;;;;;;;;;;;;;3.11;63.21;100770.25;4992407;28;19947;-85
2022/03/16 03:12:04;;;;;;;;;;;;;;;3.30;62.34;100782.16;5009320;28;19928;-87
2022/03/16 03:14:29;;;;;;;;;;;;;;;3.40;61.93;100776.41;5009393;28;19944;-85
2022/03/16 03:16:55;;;;;;;;;;;;;;;3.36;61.44;100777.13;4996220;28;20044;-87
2022/03/16 03:19:21;;;;;;;;;;;;;;;3.35;61.20;100778.84;4990900;28;20367;-86
2022/03/16 03:21:47;;;;;;;;;;;;;;;3.33;61.71;100772.69;5004431;28;19929;-87
2022/03/16 03:24:12;;;;;;;;;;;;;;;3.09;62.05;100777.13;5008980;28;19921;-86
2022/03/16 03:26:37;;;;;;;;;;;;;;;3.31;62.10;100781.31;5009418;28;19917;-86
2022/03/16 03:29:03;;;;;;;;;;;;;;;3.29;62.25;100768.22;5009181;28;19917;-87
2022/03/16 03:31:28;;;;;;;;;;;;;;;3.20;62.24;100779.25;5009275;28;20312;-86
2022/03/16 03:33:53;;;;;;;;;;;;;;;2.83;63.50;100787.59;5009083;28;19913;-87
2022/03/16 03:36:18;;;;;;;;;;;;;;;2.49;64.29;100768.19;5008887;28;19965;-86
2022/03/16 03:38:44;;;;;;;;;;;;;;;2.34;64.92;100760.72;5009653;28;20000;-87
2022/03/16 03:41:09;;;;;;;;;;;;;;;2.63;64.77;100748.69;5008292;28;20004;-87
2022/03/16 03:43:34;;;;;;;;;;;;;;;2.71;64.10;100743.75;5008771;28;19949;-87
2022/03/16 03:46:00;;;;;;;;;;;;;;;2.78;63.88;100748.34;5008545;28;19917;-85
2022/03/16 03:48:25;;;;;;;;;;;;;;;2.92;63.66;100732.25;5009244;28;19913;-85
2022/03/16 03:50:50;;;;;;;;;;;;;;;2.85;63.24;100739.00;5008789;28;19917;-87
2022/03/16 03:53:16;;;;;;;;;;;;;;;2.88;63.49;100740.81;5008317;28;19921;-86
2022/03/16 03:55:41;;;;;;;;;;;;;;;3.03;63.21;100739.59;5008827;28;19913;-85
2022/03/16 03:58:07;;;;;;;;;;;;;;;3.16;62.74;100738.25;5008306;28;19943;-85
2022/03/16 04:00:32;;;;;;;;;;;;;;;3.18;62.30;100734.00;5007733;28;19917;-86
2022/03/16 04:02:57;;;;;;;;;;;;;;;2.95;63.20;100742.78;5008468;28;19929;-87
2022/03/16 04:05:23;;;;;;;;;;;;;;;2.80;63.37;100740.56;4991142;28;20014;-86
2022/03/16 04:07:48;;;;;;;;;;;;;;;3.05;63.07;100742.25;4990609;28;19917;-84
2022/03/16 04:10:13;;;;;;;;;;;;;;;3.07;62.91;100734.47;5008081;28;19940;-85
2022/03/16 04:12:39;;;;;;;;;;;;;;;3.04;62.47;100730.03;5008788;28;19917;-90
2022/03/16 04:15:04;;;;;;;;;;;;;;;3.15;62.33;100732.97;5008190;28;20699;-87
2022/03/16 04:17:30;;;;;;;;;;;;;;;3.05;62.08;100724.88;5008516;28;19913;-89
2022/03/16 04:19:55;;;;;;;;;;;;;;;2.95;62.26;100721.91;5008685;28;20016;-87
2022/03/16 04:22:20;;;;;;;;;;;;;;;3.09;62.07;100730.19;5008272;28;19921;-85
2022/03/16 04:24:46;;;;;;;;;;;;;;;3.25;61.50;100731.56;5007101;28;20690;-88
2022/03/16 04:27:11;;;;;;;;;;;;;;;3.14;61.69;100726.03;4980441;28;19945;-87
2022/03/16 04:29:36;;;;;;;;;;;;;;;3.27;61.83;100724.69;4997408;28;19917;-88
2022/03/16 04:32:02;;;;;;;;;;;;;;;3.18;61.56;100727.88;5000677;28;19943;-86
2022/03/16 04:34:27;;;;;;;;;;;;;;;3.20;61.89;100732.31;5008549;28;20084;-86
2022/03/16 04:36:52;;;;;;;;;;;;;;;3.17;61.74;100719.19;5008880;28;20413;-86
2022/03/16 04:39:18;;;;;;;;;;;;;;;3.29;61.81;100731.72;5004519;28;20522;-86
2022/03/16 04:41:43;;;;;;;;;;;;;;;3.33;61.89;100727.47;4989182;28;19922;-87
2022/03/16 04:44:08;;;;;;;;;;;;;;;3.31;61.77;100732.66;5007668;28;20023;-85
2022/03/16 04:46:34;;;;;;;;;;;;;;;3.43;61.63;100749.50;5008244;28;19925;-85
2022/03/16 04:48:59;;;;;;;;;;;;;;;3.39;61.29;100743.31;5007913;28;19925;-86
2022/03/16 04:51:24;;;;;;;;;;;;;;;3.54;60.99;100727.25;5008827;28;20321;-86
2022/03/16 04:53:50;;;;;;;;;;;;;;;3.40;62.16;100729.44;4992814;28;19921;-88
2022/03/16 04:56:15;;;;;;;;;;;;;;;3.41;61.94;100731.19;5007830;28;19917;-89
2022/03/16 04:58:40;;;;;;;;;;;;;;;3.42;61.92;100734.72;4990577;28;20395;-88
2022/03/16 05:01:06;;;;;;;;;;;;;;;3.44;62.21;100709.53;5007998;28;19917;-89
2022/03/16 05:03:31;;;;;;;;;;;;;;;3.38;61.81;100713.75;4989945;28;19928;-89
2022/03/16 05:05:57;;;;;;;;;;;;;;;3.38;61.84;100713.75;5007076;28;19927;-87
2022/03/16 05:08:22;;;;;;;;;;;;;;;3.42;62.11;100713.84;5008098;28;20454;-89
2022/03/16 05:10:48;;;;;;;;;;;;;;;3.32;62.43;100708.34;5005517;28;19925;-87
2022/03/16 05:13:13;;;;;;;;;;;;;;;3.29;62.26;100695.22;5001191;28;19967;-87
2022/03/16 05:15:38;;;;;;;;;;;;;;;3.23;62.69;100700.22;4997204;28;19925;-88
2022/03/16 05:18:04;;;;;;;;;;;;;;;3.36;62.54;100704.09;4998650;28;19975;-88
2022/03/16 05:20:29;;;;;;;;;;;;;;;3.33;62.84;100704.88;4997180;28;19957;-87
2022/03/16 05:22:55;;;;;;;;;;;;;;;3.10;64.02;100698.06;4999886;28;19918;-88
2022/03/16 05:25:25;;;;;;;;;;;;;;;3.26;63.77;100691.59;4989859;28;19924;-89
2022/03/16 05:27:51;;;;;;;;;;;;;;;3.21;63.81;100701.88;5006539;28;19925;-87
2022/03/16 05:30:16;;;;;;;;;;;;;;;3.17;64.06;100702.66;5002509;28;20706;-88
2022/03/16 05:32:42;;;;;;;;;;;;;;;3.29;64.29;100705.63;4986666;28;20458;-88
2022/03/16 05:35:08;;;;;;;;;;;;;;;3.32;64.03;100703.13;4986300;28;19921;-87
2022/03/16 05:37:34;;;;;;;;;;;;;;;3.39;63.96;100701.56;4976883;28;20719;-87
2022/03/16 05:39:59;;;;;;;;;;;;;;;3.50;63.73;100683.63;5006468;28;19925;-87
2022/03/16 05:42:25;;;;;;;;;;;;;;;3.63;63.21;100682.25;5007147;28;19967;-88
2022/03/16 05:44:54;;;;;;;;;;;;;;;3.69;63.37;100672.91;5005719;28;19959;-87
2022/03/16 05:47:20;;;;;;;;;;;;;;;3.85;62.76;100669.00;5002136;28;19925;-87
2022/03/16 05:49:45;;;;;;;;;;;;;;;3.93;62.80;100664.84;5007440;28;19919;-86
2022/03/16 05:52:11;;;;;;;;;;;;;;;3.89;62.65;100657.81;5004883;28;19927;-89
2022/03/16 05:54:36;;;;;;;;;;;;;;;3.85;62.69;100657.69;4982603;28;19921;-88
2022/03/16 05:57:01;;;;;;;;;;;;;;;3.98;62.59;100657.16;4987847;28;20382;-88
2022/03/16 05:59:27;;;;;;;;;;;;;;;4.04;62.68;100667.75;5003640;28;20379;-90
2022/03/16 06:01:52;;;;;;;;;;;;;;;4.14;62.39;100663.69;5007642;28;19925;-89
2022/03/16 06:04:18;;;;;;;;;;;;;;;4.20;62.26;100665.56;4987426;28;20140;-93
2022/03/16 06:06:43;;;;;;;;;;;;;;;4.21;62.43;100662.13;4971460;28;20493;-89
2022/03/16 06:09:08;;;;;;;;;;;;;;;4.22;62.73;100671.72;4996370;28;19918;-84
2022/03/16 06:11:34;;;;;;;;;;;;;;;4.23;62.93;100668.25;5007373;28;19917;-88
2022/03/16 06:13:59;;;;;;;;;;;;;;;4.32;62.45;100662.38;5007189;28;19921;-89
2022/03/16 06:16:25;;;;;;;;;;;;;;;4.46;62.25;100661.91;4985790;28;19925;-89
2022/03/16 06:18:50;;;;;;;;;;;;;;;4.47;62.35;100674.09;4999007;28;19921;-88
2022/03/16 06:21:16;;;;;;;;;;;;;;;4.60;62.60;100679.66;4989833;28;19959;-89
2022/03/16 06:23:41;;;;;;;;;;;;;;;4.67;62.66;100684.19;4989427;28;19917;-89
2022/03/16 06:26:06;;;;;;;;;;;;;;;4.62;62.90;100677.97;4989658;28;19920;-90
2022/03/16 06:28:32;;;;;;;;;;;;;;;4.54;62.94;100677.78;5008019;28;19913;-89
2022/03/16 06:30:57;;;;;;;;;;;;;;;4.48;63.78;100667.19;4989292;28;19975;-91
2022/03/16 06:33:23;;;;;;;;;;;;;;;4.48;62.82;100662.81;4990115;28;19922;-93
2022/03/16 06:35:48;;;;;;;;;;;;;;;4.28;63.73;100653.59;4988607;28;20417;-90
2022/03/16 06:38:13;;;;;;;;;;;;;;;4.47;63.50;100642.75;4989939;28;19913;-92
2022/03/16 06:40:39;;;;;;;;;;;;;;;4.56;63.49;100641.25;5010290;28;20361;-91
2022/03/16 06:43:04;;;;;;;;;;;;;;;4.57;64.13;100641.28;4982060;28;20344;-89
2022/03/16 06:45:30;;;;;;;;;;;;;;;4.67;64.25;100639.75;4974026;28;19913;-91
2022/03/16 06:47:56;;;;;;;;;;;;;;;4.56;65.12;100646.47;4991559;28;19914;-89
2022/03/16 06:50:22;;;;;;;;;;;;;;;4.57;65.15;100642.97;4974230;28;19996;-90
2022/03/16 06:52:47;;;;;;;;;;;;;;;4.46;65.60;100642.72;4989988;28;20020;-91
2022/03/16 06:55:13;;;;;;;;;;;;;;;4.54;65.60;100638.59;4992907;28;20391;-89
2022/03/16 06:57:39;;;;;;;;;;;;;;;4.57;64.90;100638.66;4991636;28;19928;-90
2022/03/16 07:00:05;;;;;;;;;;;;;;;4.56;65.19;100636.88;4993705;28;19914;-91
2022/03/16 07:02:31;;;;;;;;;;;;;;;4.61;65.08;100639.59;5025570;28;20411;-90
2022/03/16 07:04:56;;;;;;;;;;;;;;;4.62;64.78;100633.53;4993118;28;19926;-90
2022/03/16 07:07:25;;;;;;;;;;;;;;;4.53;64.58;100634.19;4993218;28;19921;-90
2022/03/16 07:09:50;;;;;;;;;;;;;;;4.42;64.82;100625.22;4993796;28;19983;-89
2022/03/16 07:12:16;;;;;;;;;;;;;;;4.16;65.25;100635.88;4992162;28;20387;-89
2022/03/16 07:14:41;;;;;;;;;;;;;;;3.91;65.44;100634.34;5007440;28;19925;-89
2022/03/16 07:17:06;;;;;;;;;;;;;;;4.10;65.57;100646.16;4992659;28;19920;-89
2022/03/16 07:19:32;;;;;;;;;;;;;;;4.07;65.85;100644.34;4989244;28;20019;-91
2022/03/16 07:21:58;;;;;;;;;;;;;;;4.02;67.47;100638.13;4991853;28;19975;-92
2022/03/16 07:24:26;;;;;;;;;;;;;;;4.45;67.39;100634.00;4989205;28;20308;-88
2022/03/16 07:26:53;;;;;;;;;;;;;;;4.33;66.08;100638.91;4992113;28;19929;-88
2022/03/16 07:29:19;;;;;;;;;;;;;;;4.12;67.20;100637.53;4997010;28;19922;-87
2022/03/16 07:31:45;;;;;;;;;;;;;;;4.17;66.49;100636.75;4989161;28;19921;-87
2022/03/16 07:34:10;;;;;;;;;;;;;;;4.09;67.13;100634.84;4991675;28;20392;-88
2022/03/16 07:36:35;;;;;;;;;;;;;;;4.33;66.67;100636.31;4991793;28;19936;-90
2022/03/16 07:39:01;;;;;;;;;;;;;;;4.50;65.92;100633.25;4974005;28;19914;-88
2022/03/16 07:41:26;;;;;;;;;;;;;;;4.59;66.19;100620.41;4991545;28;19917;-88
2022/03/16 07:43:51;;;;;;;;;;;;;;;4.47;66.58;100624.47;4973573;28;19913;-89
2022/03/16 07:46:17;;;;;;;;;;;;;;;4.37;66.57;100617.25;4990690;28;19924;-89
2022/03/16 07:48:43;;;;;;;;;;;;;;;4.38;66.25;100613.78;4972823;28;19921;-87
2022/03/16 07:51:09;;;;;;;;;;;;;;;4.59;65.34;100612.56;4989839;28;20009;-87
2022/03/16 07:53:34;;;;;;;;;;;;;;;4.73;64.34;100611.16;4973144;28;20003;-89
2022/03/16 07:56:00;;;;;;;;;;;;;;;4.88;63.89;100617.56;4972659;28;19925;-92
2022/03/16 07:58:25;;;;;;;;;;;;;;;5.08;63.15;100621.53;4972781;28;19918;-89
2022/03/16 08:00:51;;;;;;;;;;;;;;;5.20;62.21;100623.53;4990672;28;19932;-90
2022/03/16 08:03:16;;;;;;;;;;;;;;;5.27;62.58;100620.19;4990519;28;19925;-91
2022/03/16 08:05:42;;;;;;;;;;;;;;;5.36;62.73;100617.78;4991478;28;19917;-92
2022/03/16 08:08:07;;;;;;;;;;;;;;;5.61;62.51;100614.75;4973771;28;19924;-90
2022/03/16 08:10:32;;;;;;;;;;;;;;;5.74;61.97;100609.78;4973137;28;19918;-89
2022/03/16 08:12:58;;;;;;;;;;;;;;;5.90;60.20;100610.97;4989468;28;20402;-95
2022/03/16 08:15:25;;;;;;;;;;;;;;;5.92;59.72;100624.09;4989208;28;19918;-90
2022/03/16 08:17:50;;;;;;;;;;;;;;;5.94;58.74;100614.53;4989926;28;19986;-91
2022/03/16 08:20:18;;;;;;;;;;;;;;;6.08;58.35;100609.56;4972364;28;20016;-88
2022/03/16 08:22:43;;;;;;;;;;;;;;;6.06;58.99;100612.16;4987784;28;20339;-89
2022/03/16 08:25:10;;;;;;;;;;;;;;;6.36;58.30;100607.44;4989625;28;19922;-87
2022/03/16 08:27:37;;;;;;;;;;;;;;;6.37;57.97;100611.81;4989888;28;20355;-90
2022/03/16 08:30:03;;;;;;;;;;;;;;;6.59;57.40;100602.56;4972012;28;19917;-89
2022/03/16 08:32:28;;;;;;;;;;;;;;;6.85;55.92;100599.47;4989879;28;20368;-91
2022/03/16 08:34:55;;;;;;;;;;;;;;;6.90;55.42;100598.66;4998539;28;19968;-87
2022/03/16 08:37:20;;;;;;;;;;;;;;;7.07;55.54;100600.66;4980657;28;19975;-90
2022/03/16 08:39:46;;;;;;;;;;;;;;;7.37;54.39;100596.66;4973225;28;19914;-90
2022/03/16 08:42:12;;;;;;;;;;;;;;;7.44;54.13;100595.88;4972674;28;19910;-92
2022/03/16 08:44:38;;;;;;;;;;;;;;;7.68;53.65;100596.16;4982011;28;19940;-92
2022/03/16 08:47:04;;;;;;;;;;;;;;;7.70;53.07;100597.03;4986541;28;19921;-90
2022/03/16 08:49:32;;;;;;;;;;;;;;;7.65;52.77;100590.88;4987862;28;19920;-87
2022/03/16 08:51:58;;;;;;;;;;;;;;;7.86;51.98;100587.59;4988866;28;20288;-90
2022/03/16 08:54:24;;;;;;;;;;;;;;;7.97;52.13;100586.81;4988906;28;19980;-89
2022/03/16 08:56:52;;;;;;;;;;;;;;;7.57;52.95;100587.28;4971271;28;19917;-89
2022/03/16 08:59:19;;;;;;;;;;;;;;;7.72;52.93;100591.81;4971417;28;19973;-88
2022/03/16 09:01:44;;;;;;;;;;;;;;;8.12;52.65;100591.34;4980910;28;19917;-89
2022/03/16 09:04:10;;;;;;;;;;;;;;;8.36;51.35;100588.06;5008639;28;19927;-89
2022/03/16 09:06:35;;;;;;;;;;;;;;;8.21;50.65;100576.53;5008236;28;20008;-89
2022/03/16 09:09:01;;;;;;;;;;;;;;;8.16;50.81;100580.00;4990581;28;20386;-88
2022/03/16 09:11:26;;;;;;;;;;;;;;;8.21;49.02;100566.00;5008351;28;19936;-89
2022/03/16 09:13:51;;;;;;;;;;;;;;;8.28;49.26;100569.59;5007913;28;19983;-88
2022/03/16 09:16:17;;;;;;;;;;;;;;;8.19;49.58;100572.16;4990804;28;19921;-88
2022/03/16 09:18:43;;;;;;;;;;;;;;;8.07;50.73;100586.91;5007712;28;19917;-88
2022/03/16 09:21:08;;;;;;;;;;;;;;;8.19;50.45;100587.91;4989571;28;19917;-88
2022/03/16 09:23:34;;;;;;;;;;;;;;;8.30;50.64;100585.38;5007077;28;19921;-88
2022/03/16 09:26:00;;;;;;;;;;;;;;;8.32;51.14;100581.00;5007203;28;19925;-89
2022/03/16 09:28:25;;;;;;;;;;;;;;;8.39;51.17;100586.31;4988940;28;19921;-89
2022/03/16 09:30:51;;;;;;;;;;;;;;;8.52;50.18;100578.56;5006887;28;19914;-88
2022/03/16 09:33:17;;;;;;;;;;;;;;;8.70;50.13;100580.47;4989656;28;19917;-89
2022/03/16 09:35:48;;;;;;;;;;;;;;;8.84;50.94;100570.03;5007285;28;20358;-89
2022/03/16 09:38:14;;;;;;;;;;;;;;;9.20;50.34;100565.81;4990576;28;19953;-89
2022/03/16 09:40:39;;;;;;;;;;;;;;;9.22;48.84;100571.97;5008093;28;20422;-89
2022/03/16 09:43:07;;;;;;;;;;;;;;;9.23;48.48;100566.69;5008216;28;19917;-89
2022/03/16 09:45:39;;;;;;;;;;;;;;;9.42;47.69;100559.78;5007840;28;19909;-88
2022/03/16 09:48:05;;;;;;;;;;;;;;;9.20;47.64;100561.44;4990798;28;20007;-90
2022/03/16 09:50:31;;;;;;;;;;;;;;;9.29;47.55;100545.66;4991102;28;19956;-89
2022/03/16 09:52:57;;;;;;;;;;;;;;;9.46;47.01;100556.25;5008191;28;20736;-88
2022/03/16 09:55:22;;;;;;;;;;;;;;;9.73;47.17;100544.06;5008206;28;20327;-89
2022/03/16 09:57:48;;;;;;;;;;;;;;;9.73;47.50;100533.53;5007523;28;19917;-89
2022/03/16 10:00:13;;;;;;;;;;;;;;;9.45;47.80;100535.19;4990166;28;19996;-86
2022/03/16 10:02:39;;;;;;;;;;;;;;;9.47;46.92;100525.56;5006898;28;19917;-88
2022/03/16 10:05:07;;;;;;;;;;;;;;;9.61;46.65;100525.59;5007799;28;19921;-89
2022/03/16 10:07:36;;;;;;;;;;;;;;;9.37;47.76;100532.53;4988804;28;19914;-87
2022/03/16 10:15:32;;;;;;;;;;;;;;;10.17;45.93;100513.34;4991700;28;20011;-89
2022/03/16 10:18:05;;;;;;;;;;;;;;;10.15;44.34;100518.59;4991964;28;19960;-87
2022/03/16 10:20:38;;;;;;;;;;;;;;;10.37;44.38;100518.63;4974322;28;19922;-89
2022/03/16 10:23:09;;;;;;;;;;;;;;;10.19;43.62;100501.03;4999016;28;19917;-88
2022/03/16 10:25:38;;;;;;;;;;;;;;;10.30;42.95;100501.00;4994137;28;19917;-88
2022/03/16 10:28:17;;;;;;;;;;;;;;;10.28;44.30;100506.28;4993694;28;20391;-89
2022/03/16 10:30:57;;;;;;;;;;;;;;;10.24;43.67;100496.66;4992713;28;19921;-91
2022/03/16 10:33:30;;;;;;;;;;;;;;;9.80;44.02;100500.16;4993934;28;19924;-88
2022/03/16 10:36:06;;;;;;;;;;;;;;;9.74;44.21;100493.09;5009817;28;19936;-91
2022/03/16 10:38:45;;;;;;;;;;;;;;;10.01;43.22;100492.25;4993264;28;19917;-89
2022/03/16 10:46:58;;;;;;;;;;;;;;;10.33;42.23;100498.41;5010650;28;20020;-88
2022/03/16 10:49:23;;;;;;;;;;;;;;;10.32;42.08;100494.00;4993439;28;20004;-87
2022/03/16 10:52:00;;;;;;;;;;;;;;;10.42;41.81;100498.41;4994931;28;19921;-90
2022/03/16 10:54:26;;;;;;;;;;;;;;;10.17;42.48;100497.50;4992668;28;19925;-89
2022/03/16 10:56:52;;;;;;;;;;;;;;;10.38;42.40;100496.66;4972999;28;19920;-89
2022/03/16 10:59:18;;;;;;;;;;;;;;;10.24;42.03;100488.72;4991303;28;19929;-89
2022/03/16 11:01:45;;;;;;;;;;;;;;;10.23;42.01;100481.69;4994460;28;19921;-90
2022/03/16 11:04:10;;;;;;;;;;;;;;;10.07;42.26;100472.94;4993063;28;20312;-88
2022/03/16 11:06:36;;;;;;;;;;;;;;;9.83;42.09;100468.53;5010215;28;19948;-89
2022/03/16 11:09:02;;;;;;;;;;;;;;;9.91;42.24;100463.25;4992391;28;20431;-89
2022/03/16 11:14:15;;;;;;;;;;;;;;;9.81;42.38;100457.13;5010018;28;19924;-89
2022/03/16 11:16:40;;;;;;;;;;;;;;;9.95;41.83;100463.25;4990973;28;20452;-88
2022/03/16 11:19:06;;;;;;;;;;;;;;;10.09;42.81;100462.38;5010612;28;19913;-90
2022/03/16 11:21:58;;;;;;;;;;;;;;;10.41;42.29;100466.75;4986397;28;19957;-91
2022/03/16 11:24:24;;;;;;;;;;;;;;;10.39;42.58;100459.75;5006678;28;20304;-91
2022/03/16 11:27:25;;;;;;;;;;;;;;;10.39;41.77;100461.47;4971773;28;19925;-88
2022/03/16 11:29:56;;;;;;;;;;;;;;;10.49;41.73;100450.03;4912020;29;19940;-90
2022/03/16 11:32:22;;;;;;;;;;;;;;;10.42;41.98;100458.81;4997584;28;20008;-89
2022/03/16 11:34:58;;;;;;;;;;;;;;;10.22;42.18;100450.91;5010766;28;20004;-89
2022/03/16 11:37:40;;;;;;;;;;;;;;;9.97;42.36;100448.31;4993694;28;20323;-91
2022/03/16 11:40:12;;;;;;;;;;;;;;;9.99;42.58;100449.22;5012645;28;20386;-92
2022/03/16 11:42:44;;;;;;;;;;;;;;;9.94;43.28;100443.03;4995370;28;19917;-93
2022/03/16 11:45:28;;;;;;;;;;;;;;;9.96;43.12;100429.84;4994583;28;19913;-90
2022/03/16 11:47:53;;;;;;;;;;;;;;;9.89;44.70;100438.66;5010238;28;19924;-90
2022/03/16 11:50:20;;;;;;;;;;;;;;;9.83;45.90;100439.53;4994916;28;19917;-91
2022/03/16 11:52:55;;;;;;;;;;;;;;;9.92;45.53;100438.66;4993211;28;20299;-87
2022/03/16 11:55:40;;;;;;;;;;;;;;;9.77;45.13;100443.03;4999405;28;20457;-88
2022/03/16 11:58:25;;;;;;;;;;;;;;;9.73;44.53;100445.69;5006574;28;19916;-84
2022/03/16 12:01:10;;;;;;;;;;;;;;;9.79;45.15;100443.03;5006558;28;19913;-88
2022/03/16 12:03:45;;;;;;;;;;;;;;;9.86;44.82;100439.53;4991311;28;19963;-87
2022/03/16 12:06:10;;;;;;;;;;;;;;;9.78;44.75;100441.31;5009384;28;19914;-83
2022/03/16 12:08:59;;;;;;;;;;;;;;;9.90;45.16;100430.75;5007455;28;20364;-86
2022/03/16 12:14:08;;;;;;;;;;;;;;;9.82;45.20;100433.41;5007668;28;19920;-87
2022/03/16 12:16:41;;;;;;;;;;;;;;;9.85;45.27;100427.22;4989726;28;19918;-89
2022/03/16 12:19:27;;;;;;;;;;;;;;;9.76;45.44;100428.13;4986739;28;19913;-87
2022/03/16 12:21:54;;;;;;;;;;;;;;;9.84;45.55;100430.75;5006918;28;19927;-89
2022/03/16 12:30:01;;;;;;;;;;;;;;;9.92;45.48;100429.00;4990641;28;19921;-92
2022/03/16 12:32:27;;;;;;;;;;;;;;;9.94;45.50;100413.19;4972664;28;20395;-90
2022/03/16 12:34:57;;;;;;;;;;;;;;;9.94;45.17;100402.63;4971750;28;20009;-90
2022/03/16 12:37:24;;;;;;;;;;;;;;;9.89;45.62;100400.00;4972180;28;20548;-89
2022/03/16 12:39:49;;;;;;;;;;;;;;;10.04;44.28;100399.13;4989602;28;19914;-92
2022/03/16 12:42:33;;;;;;;;;;;;;;;9.66;46.16;100363.13;4965884;28;19928;-92
2022/03/16 12:45:09;;;;;;;;;;;;;;;9.56;47.32;100369.28;4973837;28;19917;-92
2022/03/16 12:47:40;;;;;;;;;;;;;;;9.71;49.22;100403.53;5010419;28;19913;-92
2022/03/16 12:50:09;;;;;;;;;;;;;;;9.61;48.47;100384.22;5030335;28;19916;-91
2022/03/16 12:52:37;;;;;;;;;;;;;;;9.88;46.92;100406.16;4991316;28;19921;-92
2022/03/16 12:55:08;;;;;;;;;;;;;;;10.20;47.68;100410.50;4990286;28;19918;-94
2022/03/16 12:57:34;;;;;;;;;;;;;;;10.44;45.52;100387.63;4990454;28;20392;-92
2022/03/16 13:00:03;;;;;;;;;;;;;;;9.89;46.49;100400.00;4991636;28;20086;-92
2022/03/16 13:02:32;;;;;;;;;;;;;;;9.76;46.22;100387.72;4987965;28;19929;-91
2022/03/16 13:04:58;;;;;;;;;;;;;;;9.48;45.62;100399.16;4983204;28;20348;-92